Terminal Aerodrome Forecast
Issued by NWS Missoula, MT

Home | Current Version | Previous Version | Text Only | Print | Product List | Glossary On
Versions: 1 2 3 4 5 6 7 8 9 10 11 12 13 14 15
000
FTUS45 KMSO 262320
TAFBTM
TAF
KBTM 262320Z 2700/2724 26011KT P6SM VCSH BKN100
     FM270300 VRB06KT P6SM SCT100=

USA.gov is the U.S. government's official web portal to all federal, state and local government web resources and services.